createdAt,value
2019-04-11T00:02:00.408Z,99.90
2019-04-11T00:04:26.850Z,99.90
2019-04-11T00:06:54.036Z,99.90
2019-04-11T00:09:20.802Z,99.90
2019-04-11T00:11:48.209Z,99.90
2019-04-11T00:14:15.824Z,99.90
2019-04-11T00:16:43.472Z,99.90
2019-04-11T00:19:09.888Z,99.90
2019-04-11T00:21:38.061Z,99.90
2019-04-11T00:24:05.545Z,99.90
2019-04-11T00:26:32.708Z,99.90
2019-04-11T00:29:00.385Z,99.90
2019-04-11T00:31:26.745Z,99.90
2019-04-11T00:33:54.189Z,99.90
2019-04-11T00:36:20.651Z,99.90
2019-04-11T00:38:47.821Z,99.90
2019-04-11T00:41:15.477Z,99.90
2019-04-11T00:43:43.808Z,99.90
2019-04-11T00:46:10.105Z,99.90
2019-04-11T00:48:37.618Z,99.90
2019-04-11T00:51:04.543Z,99.90
2019-04-11T00:53:31.062Z,99.90
2019-04-11T00:55:57.459Z,99.90
2019-04-11T00:58:23.883Z,99.90
2019-04-11T01:00:51.315Z,99.90
2019-04-11T01:03:18.002Z,99.90
2019-04-11T01:05:44.415Z,99.90
2019-04-11T01:08:11.481Z,99.90
2019-04-11T01:10:39.263Z,99.90
2019-04-11T01:13:07.066Z,99.90
2019-04-11T01:15:34.050Z,99.90
2019-04-11T01:18:01.399Z,99.90
2019-04-11T01:20:27.911Z,99.90
2019-04-11T01:22:54.326Z,99.90
2019-04-11T01:25:20.704Z,99.90
2019-04-11T01:27:48.010Z,99.90
2019-04-11T01:30:18.560Z,99.90
2019-04-11T01:32:44.953Z,99.90
2019-04-11T01:35:11.301Z,99.90
2019-04-11T01:37:39.744Z,99.90
2019-04-11T01:40:07.667Z,99.90
2019-04-11T01:42:35.436Z,99.90
2019-04-11T01:45:03.127Z,99.90
2019-04-11T01:47:46.978Z,99.90
2019-04-11T01:50:15.195Z,99.90
2019-04-11T01:52:42.434Z,99.90
2019-04-11T01:55:10.212Z,99.90
2019-04-11T01:57:36.697Z,99.90
2019-04-11T02:00:04.493Z,99.90
2019-04-11T02:02:37.420Z,99.90
2019-04-11T02:05:08.579Z,99.90
2019-04-11T02:07:34.926Z,99.90
2019-04-11T02:10:02.465Z,99.90
2019-04-11T02:12:29.076Z,99.90
2019-04-11T02:14:55.602Z,99.90
2019-04-11T02:17:22.325Z,99.90
2019-04-11T02:19:48.850Z,99.90
2019-04-11T02:22:18.026Z,99.90
2019-04-11T02:24:59.133Z,99.90
2019-04-11T02:27:27.416Z,99.90
2019-04-11T02:29:55.024Z,99.90
2019-04-11T02:32:24.410Z,99.90
2019-04-11T02:34:54.617Z,99.90
2019-04-11T02:37:19.740Z,99.90
2019-04-11T02:39:47.288Z,99.90
2019-04-11T02:42:14.928Z,99.90
2019-04-11T02:44:59.906Z,99.90
2019-04-11T02:47:15.824Z,99.90
2019-04-11T02:49:39.241Z,99.90
2019-04-11T02:52:07.112Z,99.90
2019-04-11T02:54:34.286Z,99.90
2019-04-11T02:57:02.400Z,99.90
2019-04-11T02:59:30.651Z,99.90
2019-04-11T03:01:58.154Z,99.90
2019-04-11T03:04:25.200Z,99.90
2019-04-11T03:06:53.026Z,99.90
2019-04-11T03:09:20.281Z,99.90
2019-04-11T03:11:49.281Z,99.90
2019-04-11T03:14:16.914Z,99.90
2019-04-11T03:16:56.245Z,99.90
2019-04-11T03:19:25.405Z,99.90
2019-04-11T03:21:42.377Z,99.90
2019-04-11T03:24:10.951Z,99.90
2019-04-11T03:26:37.754Z,99.90
2019-04-11T03:29:06.327Z,99.90
2019-04-11T03:32:13.831Z,99.90
2019-04-11T03:34:52.183Z,99.90
2019-04-11T03:37:15.546Z,99.90
2019-04-11T03:39:16.943Z,99.90
2019-04-11T03:41:42.454Z,99.90
2019-04-11T03:44:04.445Z,99.90
2019-04-11T03:46:40.136Z,99.90
2019-04-11T03:49:02.780Z,99.90
2019-04-11T03:51:21.039Z,99.90
2019-04-11T03:53:49.109Z,99.90
2019-04-11T03:56:16.272Z,99.90
2019-04-11T03:58:46.186Z,99.90
2019-04-11T04:01:14.074Z,99.90
2019-04-11T04:03:42.583Z,99.90
2019-04-11T04:06:09.720Z,99.90
2019-04-11T04:08:38.500Z,99.90
2019-04-11T04:11:27.133Z,99.90
2019-04-11T04:14:14.734Z,99.90
2019-04-11T04:16:49.838Z,99.90
2019-04-11T04:19:35.347Z,99.90
2019-04-11T04:22:13.554Z,99.90
2019-04-11T04:24:42.730Z,99.90
2019-04-11T04:27:10.076Z,99.90
2019-04-11T04:29:37.868Z,99.90
2019-04-11T04:32:05.441Z,99.90
2019-04-11T04:34:36.665Z,99.90
2019-04-11T04:37:03.634Z,99.90
2019-04-11T04:39:32.235Z,99.90
2019-04-11T04:42:05.857Z,99.90
2019-04-11T04:44:26.979Z,99.90
2019-04-11T04:47:07.407Z,99.90
2019-04-11T04:49:23.693Z,99.90
2019-04-11T04:51:53.175Z,99.90
2019-04-11T04:54:19.963Z,99.90
2019-04-11T04:56:47.343Z,99.90
2019-04-11T04:59:14.620Z,99.90
2019-04-11T05:01:43.799Z,99.90
2019-04-11T05:04:11.897Z,99.90
2019-04-11T05:06:40.688Z,99.90
2019-04-11T05:09:08.598Z,99.90
2019-04-11T05:11:36.137Z,99.90
2019-04-11T05:14:03.040Z,99.90
2019-04-11T05:16:29.855Z,99.90
2019-04-11T05:18:56.667Z,99.90
2019-04-11T05:21:25.351Z,99.90
2019-04-11T05:23:52.152Z,99.90
2019-04-11T05:26:19.378Z,99.90
2019-04-11T05:28:45.876Z,99.90
2019-04-11T05:31:12.289Z,99.90
2019-04-11T05:33:39.088Z,99.90
2019-04-11T05:36:06.030Z,99.90
2019-04-11T05:38:32.789Z,99.90
2019-04-11T05:40:59.299Z,99.90
2019-04-11T05:43:30.102Z,99.90
2019-04-11T05:45:55.236Z,99.90
2019-04-11T05:48:41.154Z,99.90
2019-04-11T05:51:08.791Z,99.90
2019-04-11T05:53:37.007Z,99.90
2019-04-11T05:56:05.370Z,99.90
2019-04-11T05:58:34.587Z,99.90
2019-04-11T06:01:22.271Z,99.90
2019-04-11T06:03:52.556Z,99.90
2019-04-11T06:06:21.697Z,99.90
2019-04-11T06:08:49.281Z,99.90
2019-04-11T06:11:24.118Z,99.90
2019-04-11T06:13:53.043Z,99.10
2019-04-11T06:16:19.431Z,98.10
2019-04-11T06:19:03.884Z,97.40
2019-04-11T06:21:35.960Z,97.70
2019-04-11T06:24:11.968Z,98.30
2019-04-11T06:26:57.335Z,97.00
2019-04-11T06:29:26.856Z,96.60
2019-04-11T06:32:06.175Z,96.70
2019-04-11T06:34:47.150Z,96.00
2019-04-11T06:37:15.522Z,92.00
2019-04-11T06:39:43.787Z,94.10
2019-04-11T06:42:30.172Z,95.20
2019-04-11T06:44:58.623Z,92.00
2019-04-11T06:47:39.045Z,92.80
2019-04-11T06:50:09.059Z,90.50
2019-04-11T06:52:37.478Z,90.10
2019-04-11T06:55:07.196Z,90.80
2019-04-11T06:57:36.172Z,89.70
2019-04-11T07:00:07.694Z,84.20
2019-04-11T07:02:36.913Z,83.90
2019-04-11T07:05:07.875Z,87.00
2019-04-11T07:07:36.209Z,84.90
2019-04-11T07:10:06.247Z,82.90
2019-04-11T07:12:38.499Z,79.30
2019-04-11T07:15:10.161Z,79.20
2019-04-11T07:17:55.074Z,78.30
2019-04-11T07:20:41.457Z,78.20
2019-04-11T07:23:26.574Z,76.50
2019-04-11T07:25:55.901Z,79.80
2019-04-11T07:28:30.116Z,78.70
2019-04-11T07:31:07.201Z,68.90
2019-04-11T07:33:37.293Z,69.50
2019-04-11T07:36:22.810Z,68.70
2019-04-11T07:39:07.651Z,71.60
2019-04-11T07:41:36.766Z,68.70
2019-04-11T07:44:04.265Z,64.80
2019-04-11T07:46:32.942Z,65.00
2019-04-11T07:48:59.504Z,66.80
2019-04-11T07:51:25.884Z,68.50
2019-04-11T07:53:53.076Z,68.20
2019-04-11T07:56:30.276Z,67.00
2019-04-11T07:59:02.717Z,60.10
2019-04-11T08:01:38.246Z,64.50
2019-04-11T08:04:23.984Z,65.70
2019-04-11T08:06:56.299Z,62.40
2019-04-11T08:09:43.889Z,60.60
2019-04-11T08:12:15.039Z,60.90
2019-04-11T08:15:01.469Z,56.30
2019-04-11T08:17:37.606Z,56.40
2019-04-11T08:20:19.392Z,61.30
2019-04-11T08:22:47.845Z,66.90
2019-04-11T08:25:33.533Z,72.90
2019-04-11T08:28:07.486Z,77.00
2019-04-11T08:30:35.018Z,82.60
2019-04-11T08:33:07.436Z,84.00
2019-04-11T08:35:38.378Z,88.00
2019-04-11T08:38:12.015Z,90.70
2019-04-11T08:40:55.858Z,92.30
2019-04-11T08:43:26.954Z,93.00
2019-04-11T08:46:12.954Z,93.70
2019-04-11T08:48:47.277Z,93.70
2019-04-11T08:51:19.197Z,93.70
2019-04-11T08:53:57.254Z,94.00
2019-04-11T08:56:25.036Z,94.10
2019-04-11T08:59:11.459Z,94.80
2019-04-11T09:01:38.149Z,93.90
2019-04-11T09:04:09.205Z,93.80
2019-04-11T09:06:35.332Z,93.60
2019-04-11T09:09:16.339Z,93.20
2019-04-11T09:11:46.821Z,93.00
2019-04-11T09:14:22.223Z,92.20
2019-04-11T09:16:56.731Z,92.00
2019-04-11T09:19:43.063Z,92.30
2019-04-11T09:22:11.416Z,92.00
2019-04-11T09:24:43.103Z,92.00
2019-04-11T09:27:28.962Z,91.30
2019-04-11T09:29:58.487Z,91.80
2019-04-11T09:32:32.704Z,92.40
2019-04-11T09:35:14.378Z,92.00
2019-04-11T09:37:42.894Z,92.00
2019-04-11T09:40:11.947Z,91.70
2019-04-11T09:42:47.119Z,90.90
2019-04-11T09:45:19.533Z,90.50
2019-04-11T09:48:12.602Z,90.40
2019-04-11T09:50:34.800Z,90.00
2019-04-11T09:53:01.572Z,90.40
2019-04-11T09:55:41.768Z,89.40
2019-04-11T09:58:27.373Z,80.00
2019-04-11T10:01:12.989Z,83.00
2019-04-11T10:03:40.807Z,80.60
2019-04-11T10:06:13.687Z,85.90
2019-04-11T10:08:42.020Z,89.40
2019-04-11T10:11:16.068Z,90.60
2019-04-11T10:13:53.371Z,91.90
2019-04-11T10:16:24.690Z,92.60
2019-04-11T10:19:08.406Z,93.30
2019-04-11T10:21:37.514Z,93.40
2019-04-11T10:24:09.566Z,96.90
2019-04-11T10:26:47.885Z,94.70
2019-04-11T10:29:19.264Z,95.00
2019-04-11T10:31:47.669Z,95.50
2019-04-11T10:34:15.939Z,94.90
2019-04-11T10:36:45.284Z,95.10
2019-04-11T10:39:20.048Z,95.60
2019-04-11T10:41:50.996Z,95.20
2019-04-11T10:44:19.238Z,95.60
2019-04-11T10:46:47.676Z,95.80
2019-04-11T10:49:24.886Z,95.50
2019-04-11T10:52:00.037Z,95.20
2019-04-11T10:54:29.691Z,95.20
2019-04-11T10:57:16.575Z,94.60
2019-04-11T10:59:44.976Z,93.70
2019-04-11T11:02:30.027Z,94.00
2019-04-11T11:04:57.202Z,93.90
2019-04-11T11:07:24.691Z,94.10
2019-04-11T11:09:56.732Z,93.80
2019-04-11T11:12:37.222Z,94.10
2019-04-11T11:15:07.302Z,93.50
2019-04-11T11:17:54.916Z,93.90
2019-04-11T11:20:27.426Z,93.20
2019-04-11T11:22:53.724Z,92.90
2019-04-11T11:25:39.338Z,92.80
2019-04-11T11:28:05.947Z,92.80
2019-04-11T11:30:35.368Z,93.10
2019-04-11T11:33:02.282Z,93.20
2019-04-11T11:35:49.887Z,93.00
2019-04-11T11:38:21.935Z,93.40
2019-04-11T11:41:07.909Z,93.90
2019-04-11T11:43:35.167Z,93.40
2019-04-11T11:46:06.926Z,93.10
2019-04-11T11:48:39.546Z,93.00
2019-04-11T11:53:59.405Z,93.20
2019-04-11T11:56:26.265Z,93.80
2019-04-11T11:58:57.840Z,93.50
2019-04-11T12:01:24.813Z,93.40
2019-04-11T12:04:10.756Z,98.30
2019-04-11T12:06:38.860Z,96.80
2019-04-11T12:09:07.262Z,93.20
2019-04-11T12:11:36.551Z,93.20
2019-04-11T12:14:05.044Z,93.30
2019-04-11T12:16:39.720Z,93.80
2019-04-11T12:19:15.842Z,93.10
2019-04-11T12:21:40.997Z,92.70
2019-04-11T12:24:26.611Z,93.50
2019-04-11T12:27:10.230Z,92.80
2019-04-11T12:29:44.404Z,97.80
2019-04-11T12:32:14.507Z,99.10
2019-04-11T12:37:14.862Z,96.70
2019-04-11T12:39:52.574Z,93.30
2019-04-11T12:42:23.667Z,93.20
2019-04-11T12:45:08.911Z,93.20
2019-04-11T12:47:38.556Z,94.50
2019-04-11T12:50:24.846Z,97.30
2019-04-11T12:52:56.076Z,96.50
2019-04-11T12:55:36.759Z,93.60
2019-04-11T12:58:07.617Z,96.40
2019-04-11T13:00:48.056Z,92.80
2019-04-11T13:03:31.196Z,93.80
2019-04-11T13:06:02.568Z,97.30
2019-04-11T13:08:47.145Z,95.10
2019-04-11T13:11:15.419Z,95.70
2019-04-11T13:14:00.666Z,95.70
2019-04-11T13:16:27.913Z,96.20
2019-04-11T13:19:13.195Z,95.70
2019-04-11T13:21:41.485Z,96.50
2019-04-11T13:24:15.426Z,96.60
2019-04-11T13:27:00.320Z,96.60
2019-04-11T13:29:31.791Z,96.00
2019-04-11T13:32:06.124Z,95.70
2019-04-11T13:34:34.467Z,96.30
2019-04-11T13:37:19.677Z,95.70
2019-04-11T13:39:50.579Z,95.50
2019-04-11T13:42:35.594Z,95.60
2019-04-11T13:45:02.149Z,96.00
2019-04-11T13:47:47.292Z,95.90
2019-04-11T13:50:16.798Z,94.80
2019-04-11T13:53:02.235Z,94.90
2019-04-11T13:55:28.739Z,95.60
2019-04-11T13:58:14.039Z,95.90
2019-04-11T14:00:45.279Z,95.50
2019-04-11T14:03:28.745Z,94.90
2019-04-11T14:05:57.082Z,95.40
2019-04-11T14:08:34.228Z,95.50
2019-04-11T14:11:02.542Z,95.70
2019-04-11T14:13:43.049Z,95.90
2019-04-11T14:16:11.300Z,95.40
2019-04-11T14:18:42.358Z,95.20
2019-04-11T14:21:14.296Z,95.40
2019-04-11T14:23:59.016Z,95.70
2019-04-11T14:26:39.599Z,95.60
2019-04-11T14:29:14.205Z,95.70
2019-04-11T14:31:50.926Z,95.40
2019-04-11T14:34:36.900Z,95.40
2019-04-11T14:37:14.218Z,95.10
2019-04-11T14:39:42.493Z,95.20
2019-04-11T14:42:14.069Z,94.50
2019-04-11T14:44:41.625Z,94.90
2019-04-11T14:47:26.556Z,94.60
2019-04-11T14:49:58.443Z,94.90
2019-04-11T14:52:30.903Z,94.90
2019-04-11T14:54:58.630Z,95.40
2019-04-11T14:57:29.700Z,95.50
2019-04-11T15:00:01.028Z,95.60
2019-04-11T15:02:41.566Z,95.30
2019-04-11T15:05:13.666Z,95.70
2019-04-11T15:07:39.392Z,95.60
2019-04-11T15:10:11.513Z,95.70
2019-04-11T15:12:39.238Z,96.30
2019-04-11T15:15:19.299Z,96.30
2019-04-11T15:17:46.318Z,96.40
2019-04-11T15:20:34.120Z,96.70
2019-04-11T15:23:06.694Z,96.90
2019-04-11T15:25:37.877Z,97.10
2019-04-11T15:28:13.175Z,97.40
2019-04-11T15:30:49.398Z,97.20
2019-04-11T15:33:34.462Z,97.40
2019-04-11T15:36:03.060Z,97.90
2019-04-11T15:38:48.043Z,98.30
2019-04-11T15:41:14.950Z,98.30
2019-04-11T15:43:59.336Z,98.60
2019-04-11T15:46:28.631Z,98.80
2019-04-11T15:49:05.533Z,98.90
2019-04-11T15:51:39.695Z,98.90
2019-04-11T15:54:13.578Z,99.40
2019-04-11T15:56:51.255Z,99.20
2019-04-11T15:59:37.876Z,98.80
2019-04-11T16:02:23.092Z,99.30
2019-04-11T16:04:59.315Z,99.30
2019-04-11T16:07:44.248Z,99.30
2019-04-11T16:10:11.994Z,99.60
2019-04-11T16:12:46.471Z,99.40
2019-04-11T16:15:16.296Z,99.40
2019-04-11T16:17:47.843Z,99.40
2019-04-11T16:20:17.831Z,99.60
2019-04-11T16:22:54.985Z,99.70
2019-04-11T16:25:20.226Z,99.90
2019-04-11T16:28:07.258Z,99.70
2019-04-11T16:30:35.143Z,99.80
2019-04-11T16:33:03.690Z,99.50
2019-04-11T16:35:48.905Z,99.80
2019-04-11T16:38:20.344Z,99.70
2019-04-11T16:41:03.747Z,99.50
2019-04-11T16:43:32.097Z,99.80
2019-04-11T16:46:17.353Z,99.70
2019-04-11T16:48:43.781Z,99.80
2019-04-11T16:51:10.184Z,99.90
2019-04-11T16:53:36.642Z,99.90
2019-04-11T16:56:03.249Z,99.90
2019-04-11T16:58:29.658Z,99.90
2019-04-11T17:00:56.097Z,99.90
2019-04-11T17:03:24.749Z,99.90
2019-04-11T17:05:58.729Z,99.90
2019-04-11T17:08:29.550Z,99.90
2019-04-11T17:11:03.933Z,99.90
2019-04-11T17:13:32.288Z,99.90
2019-04-11T17:16:00.101Z,99.90
2019-04-11T17:18:27.153Z,99.90
2019-04-11T17:20:53.586Z,99.90
2019-04-11T17:23:21.065Z,99.90
2019-04-11T17:25:52.353Z,99.90
2019-04-11T17:28:15.824Z,99.90
2019-04-11T17:30:42.270Z,99.90
2019-04-11T17:33:08.722Z,99.90
2019-04-11T17:35:35.187Z,99.90
2019-04-11T17:38:04.101Z,99.90
2019-04-11T17:40:29.907Z,99.90
2019-04-11T17:42:56.457Z,99.90
2019-04-11T17:45:22.925Z,99.90
2019-04-11T17:47:49.388Z,99.90
2019-04-11T17:50:16.130Z,99.90
2019-04-11T17:52:42.597Z,99.90
2019-04-11T17:55:09.057Z,99.90
2019-04-11T17:57:35.488Z,99.90
2019-04-11T18:00:07.317Z,99.90
2019-04-11T18:02:34.936Z,99.90
2019-04-11T18:05:01.311Z,99.90
2019-04-11T18:07:28.936Z,99.90
2019-04-11T18:09:56.023Z,99.90
2019-04-11T18:12:23.815Z,99.90
2019-04-11T18:14:51.344Z,99.90
2019-04-11T18:17:17.758Z,99.90
2019-04-11T18:19:44.149Z,99.90
2019-04-11T18:22:13.348Z,99.90
2019-04-11T18:24:38.906Z,99.90
2019-04-11T18:27:05.237Z,99.90
2019-04-11T18:29:31.672Z,99.90
2019-04-11T18:31:58.129Z,99.90
2019-04-11T18:34:24.546Z,99.90
2019-04-11T18:36:50.949Z,99.90
2019-04-11T18:39:17.480Z,99.90
2019-04-11T18:41:43.823Z,99.90
2019-04-11T18:44:10.268Z,99.90
2019-04-11T18:46:36.597Z,99.90
2019-04-11T18:49:04.592Z,99.90
2019-04-11T18:51:31.312Z,99.90
2019-04-11T18:53:58.063Z,99.90
2019-04-11T18:56:25.394Z,99.90
2019-04-11T18:58:51.994Z,99.90
2019-04-11T19:01:19.427Z,99.90
2019-04-11T19:03:45.808Z,99.90
2019-04-11T19:06:13.139Z,99.90
2019-04-11T19:08:43.084Z,99.90
2019-04-11T19:11:08.474Z,99.90
2019-04-11T19:13:34.879Z,99.90
2019-04-11T19:16:01.348Z,99.90
2019-04-11T19:18:27.866Z,99.90
2019-04-11T19:20:54.284Z,99.90
2019-04-11T19:23:20.710Z,99.90
2019-04-11T19:25:47.084Z,99.90
2019-04-11T19:28:13.514Z,99.90
2019-04-11T19:30:42.328Z,99.90
2019-04-11T19:33:08.105Z,99.90
2019-04-11T19:35:34.540Z,99.90
2019-04-11T19:38:00.949Z,99.90
2019-04-11T19:40:27.345Z,99.90
2019-04-11T19:42:53.726Z,99.90
2019-04-11T19:45:21.246Z,99.90
2019-04-11T19:47:51.835Z,99.90
2019-04-11T19:50:16.253Z,99.90
2019-04-11T19:52:45.723Z,99.90
2019-04-11T19:55:14.009Z,99.90
2019-04-11T19:57:40.437Z,99.90
2019-04-11T20:00:08.618Z,99.90
2019-04-11T20:02:35.328Z,99.90
2019-04-11T20:05:01.666Z,99.90
2019-04-11T20:07:28.899Z,99.90
2019-04-11T20:09:55.260Z,99.90
2019-04-11T20:12:21.650Z,99.90
2019-04-11T20:14:48.011Z,99.90
2019-04-11T20:17:14.402Z,99.90
2019-04-11T20:19:40.817Z,99.90
2019-04-11T20:22:08.598Z,99.90
2019-04-11T20:24:35.400Z,99.90
2019-04-11T20:27:01.789Z,99.90
2019-04-11T20:29:29.285Z,99.90
2019-04-11T20:31:55.663Z,99.90
2019-04-11T20:34:27.837Z,99.90
2019-04-11T20:36:50.261Z,99.90
2019-04-11T20:39:16.670Z,99.90
2019-04-11T20:41:43.030Z,99.90
2019-04-11T20:44:09.413Z,99.90
2019-04-11T20:46:35.830Z,99.90
2019-04-11T20:49:03.370Z,99.90
2019-04-11T20:51:29.797Z,99.90
2019-04-11T20:53:56.175Z,99.90
2019-04-11T20:56:24.475Z,99.90
2019-04-11T20:58:50.831Z,99.90
2019-04-11T21:01:17.228Z,99.90
2019-04-11T21:03:43.598Z,99.90
2019-04-11T21:06:10.152Z,99.90
2019-04-11T21:08:36.836Z,99.90
2019-04-11T21:11:04.492Z,99.90
2019-04-11T21:13:31.470Z,99.90
2019-04-11T21:15:57.846Z,99.90
2019-04-11T21:18:25.831Z,99.90
2019-04-11T21:20:55.054Z,99.90
2019-04-11T21:23:24.781Z,99.90
2019-04-11T21:25:48.735Z,99.90
2019-04-11T21:28:15.178Z,99.90
2019-04-11T21:30:41.611Z,99.90
2019-04-11T21:33:08.050Z,99.90
2019-04-11T21:35:34.417Z,99.90
2019-04-11T21:38:00.974Z,99.90
2019-04-11T21:40:27.362Z,99.90
2019-04-11T21:42:53.762Z,99.90
2019-04-11T21:45:20.152Z,99.90
2019-04-11T21:47:46.567Z,99.90
2019-04-11T21:50:13.074Z,99.90
2019-04-11T21:52:43.459Z,99.90
2019-04-11T21:55:07.826Z,99.90
2019-04-11T21:57:34.161Z,99.90
2019-04-11T22:00:01.631Z,99.90
2019-04-11T22:02:30.077Z,99.90
2019-04-11T22:04:58.556Z,99.90
2019-04-11T22:07:24.804Z,99.90
2019-04-11T22:09:51.223Z,99.90
2019-04-11T22:12:17.609Z,99.90
2019-04-11T22:14:44.027Z,99.90
2019-04-11T22:17:10.435Z,99.90
2019-04-11T22:19:36.870Z,99.90
2019-04-11T22:22:03.271Z,99.90
2019-04-11T22:24:29.692Z,99.90
2019-04-11T22:26:56.033Z,99.90
2019-04-11T22:29:24.825Z,99.90
2019-04-11T22:31:50.629Z,99.90
2019-04-11T22:34:30.667Z,99.90
2019-04-11T22:36:59.586Z,99.90
2019-04-11T22:39:25.405Z,99.90
2019-04-11T22:41:51.761Z,99.90
2019-04-11T22:44:18.135Z,99.90
2019-04-11T22:46:44.485Z,99.90
2019-04-11T22:49:10.850Z,99.90
2019-04-11T22:51:37.223Z,99.90
2019-04-11T22:54:03.707Z,99.90
2019-04-11T22:56:30.055Z,99.90
2019-04-11T22:58:56.445Z,99.90
2019-04-11T23:01:22.771Z,99.90
2019-04-11T23:03:51.062Z,99.90
2019-04-11T23:06:17.802Z,99.90
2019-04-11T23:08:48.549Z,99.90
2019-04-11T23:11:15.176Z,99.90
2019-04-11T23:13:45.356Z,99.90
2019-04-11T23:16:12.077Z,99.90
2019-04-11T23:18:38.212Z,99.90
2019-04-11T23:21:05.629Z,99.90
2019-04-11T23:23:31.991Z,99.90
2019-04-11T23:25:58.363Z,99.90
2019-04-11T23:28:24.754Z,99.90
2019-04-11T23:30:51.129Z,99.90
2019-04-11T23:33:18.914Z,99.90
2019-04-11T23:35:45.599Z,99.90
2019-04-11T23:38:11.925Z,99.90
2019-04-11T23:40:38.280Z,99.90
2019-04-11T23:43:04.676Z,99.90
2019-04-11T23:45:31.608Z,99.90
2019-04-11T23:47:57.964Z,99.90
2019-04-11T23:50:25.241Z,99.90
2019-04-11T23:52:52.295Z,99.90
2019-04-11T23:55:18.663Z,99.90
2019-04-11T23:57:45.116Z,99.90
